Time;durP1;ratioP1;P1;durP2;ratioP2;P2;SDS_P1;SDS_P2;PMS_P1;PMS_P2;Temp;Humidity;BMP_temperature;BMP_pressure;BME280_temperature;BME280_humidity;BME280_pressure;Samples;Min_cycle;Max_cycle;Signal;HPM_P1;HPM_P2
2021/05/01 00:02:27;;;;;;;23.70;14.27;;;;;;;5.89;98.64;101202.69;6271414;28;20103;-74
2021/05/01 00:05:28;;;;;;;21.88;13.93;;;;;;;5.87;99.67;101188.00;6270993;28;20080;-74
2021/05/01 00:08:30;;;;;;;25.90;14.27;;;;;;;5.84;99.68;101194.16;6271204;28;20045;-74
2021/05/01 00:11:31;;;;;;;23.38;14.75;;;;;;;5.76;99.08;101189.13;6271125;28;20109;-75
2021/05/01 00:14:32;;;;;;;21.23;13.52;;;;;;;5.70;98.45;101193.66;6270777;28;20080;-75
2021/05/01 00:17:33;;;;;;;22.63;13.32;;;;;;;5.69;99.11;101181.53;6271216;28;20414;-75
2021/05/01 00:20:34;;;;;;;21.25;13.15;;;;;;;5.64;98.54;101186.00;6271066;28;20136;-75
2021/05/01 00:23:35;;;;;;;22.00;13.60;;;;;;;5.61;99.13;101189.53;6270879;28;20045;-75
2021/05/01 00:26:36;;;;;;;21.42;13.55;;;;;;;5.59;99.14;101173.09;6271063;28;20045;-74
2021/05/01 00:29:37;;;;;;;23.13;14.57;;;;;;;5.55;99.94;101169.69;6271133;28;20063;-77
2021/05/01 00:32:38;;;;;;;21.38;13.77;;;;;;;5.48;99.40;101168.13;6270942;28;20505;-75
2021/05/01 00:35:39;;;;;;;23.80;14.98;;;;;;;5.48;99.80;101175.09;6278870;22;20144;-74
2021/05/01 00:38:40;;;;;;;24.08;13.80;;;;;;;5.43;99.41;101177.81;6246078;28;20045;-74
2021/05/01 00:41:45;;;;;;;24.65;15.93;;;;;;;5.41;100.00;101164.00;6246257;28;20188;-74
2021/05/01 00:44:46;;;;;;;23.00;14.43;;;;;;;5.39;100.00;101154.47;6245663;28;20089;-74
2021/05/01 00:47:47;;;;;;;33.40;16.27;;;;;;;5.36;100.00;101163.25;6246055;28;20095;-74
2021/05/01 00:50:48;;;;;;;24.92;15.48;;;;;;;5.33;100.00;101158.97;6246111;28;20085;-74
2021/05/01 00:53:50;;;;;;;30.75;15.20;;;;;;;5.31;100.00;101158.16;6246032;28;20551;-74
2021/05/01 00:56:51;;;;;;;25.42;14.15;;;;;;;5.29;100.00;101157.31;6246695;28;20057;-74
2021/05/01 00:59:52;;;;;;;23.45;14.85;;;;;;;5.29;100.00;101152.09;6250480;28;20072;-74
2021/05/01 01:02:53;;;;;;;25.17;15.75;;;;;;;5.29;100.00;101152.09;6250271;28;20092;-74
2021/05/01 01:05:54;;;;;;;26.02;16.13;;;;;;;5.25;100.00;101152.22;6250223;28;20049;-74
2021/05/01 01:08:57;;;;;;;22.33;15.38;;;;;;;5.23;100.00;101152.28;6250550;28;20046;-74
2021/05/01 01:11:57;;;;;;;26.48;15.77;;;;;;;5.22;100.00;101144.47;6250165;28;20045;-74
2021/05/01 01:14:59;;;;;;;28.23;16.55;;;;;;;5.19;100.00;101150.63;6249981;28;20052;-74
2021/05/01 01:18:01;;;;;;;25.35;15.48;;;;;;;5.20;100.00;101154.94;6249967;28;20050;-74
2021/05/01 01:21:03;;;;;;;24.42;15.30;;;;;;;5.16;99.96;101161.13;6250297;28;20054;-74
2021/05/01 01:24:06;;;;;;;22.63;14.88;;;;;;;5.12;100.00;101159.47;6249601;28;20041;-74
2021/05/01 01:27:08;;;;;;;25.77;15.77;;;;;;;5.04;100.00;101161.41;6249962;28;20052;-74
2021/05/01 01:30:12;;;;;;;24.17;15.50;;;;;;;5.06;100.00;101154.44;6249892;28;20111;-74
2021/05/01 01:33:12;;;;;;;23.40;15.43;;;;;;;5.21;100.00;101150.59;6249369;28;20046;-73
2021/05/01 01:36:13;;;;;;;26.38;17.17;;;;;;;5.34;100.00;101145.03;6249612;28;20052;-74
2021/05/01 01:39:15;;;;;;;26.02;17.17;;;;;;;5.39;100.00;101150.13;6249587;28;20053;-74
2021/05/01 01:42:16;;;;;;;28.10;18.02;;;;;;;5.42;100.00;101154.41;6249703;28;20053;-74
2021/05/01 01:45:19;;;;;;;26.92;17.63;;;;;;;5.49;100.00;101151.59;6249245;28;20050;-73
2021/05/01 01:48:20;;;;;;;25.58;16.40;;;;;;;5.48;100.00;101146.44;6249514;28;20088;-74
2021/05/01 01:51:21;;;;;;;25.58;16.20;;;;;;;5.48;100.00;101141.22;6249371;28;20095;-74
2021/05/01 01:54:23;;;;;;;26.20;17.17;;;;;;;5.50;100.00;101144.66;6249276;28;20041;-74
2021/05/01 01:57:24;;;;;;;30.75;18.27;;;;;;;5.52;100.00;101141.09;6249207;28;20140;-74
2021/05/01 02:00:29;;;;;;;27.27;17.15;;;;;;;5.50;100.00;101135.06;6249330;28;20046;-74
2021/05/01 02:03:30;;;;;;;26.88;17.23;;;;;;;5.49;100.00;101135.09;6248925;28;20046;-74
2021/05/01 02:06:31;;;;;;;28.42;17.98;;;;;;;5.43;100.00;101136.13;6249174;28;20152;-74
2021/05/01 02:09:32;;;;;;;28.17;17.63;;;;;;;5.40;100.00;101133.59;6248064;28;20072;-74
2021/05/01 02:12:37;;;;;;;29.45;17.70;;;;;;;5.39;100.00;101131.88;6248767;28;20045;-74
2021/05/01 02:15:38;;;;;;;31.10;18.67;;;;;;;5.36;100.00;101129.38;6248682;28;20107;-74
2021/05/01 02:18:39;;;;;;;26.40;17.58;;;;;;;5.33;100.00;101140.72;6248673;28;20420;-74
2021/05/01 02:21:40;;;;;;;27.17;17.67;;;;;;;5.35;100.00;101143.28;6248760;28;20059;-74
2021/05/01 02:24:42;;;;;;;29.85;17.63;;;;;;;5.37;100.00;101127.63;6248206;28;20054;-74
2021/05/01 02:27:44;;;;;;;30.02;18.00;;;;;;;5.39;100.00;101138.84;6248311;28;20600;-74
2021/05/01 02:30:45;;;;;;;30.88;19.10;;;;;;;5.37;100.00;101131.06;6248433;28;20167;-74
2021/05/01 02:37:02;;;;;;;36.25;19.58;;;;;;;5.35;100.00;101131.09;6288678;22;20053;-74
2021/05/01 02:40:05;;;;;;;28.08;18.33;;;;;;;5.42;100.00;101126.59;6273064;28;20574;-74
2021/05/01 02:43:08;;;;;;;26.98;17.85;;;;;;;5.41;100.00;101124.88;6272728;28;20052;-74
2021/05/01 02:46:08;;;;;;;29.60;17.45;;;;;;;5.40;100.00;101117.94;6272584;28;20053;-75
2021/05/01 02:49:09;;;;;;;29.30;18.27;;;;;;;5.36;100.00;101111.13;6272776;28;20125;-74
2021/05/01 02:52:10;;;;;;;28.92;17.95;;;;;;;5.33;100.00;101106.00;6272540;28;20056;-74
2021/05/01 02:55:14;;;;;;;28.77;18.35;;;;;;;5.33;100.00;101109.44;6271418;28;20045;-74
2021/05/01 02:58:14;;;;;;;26.70;16.92;;;;;;;5.28;100.00;101102.66;6264123;28;20049;-74
2021/05/01 03:01:15;;;;;;;28.85;18.60;;;;;;;5.20;100.00;101099.38;6264434;28;20048;-74
2021/05/01 03:04:16;;;;;;;32.30;17.92;;;;;;;5.15;100.00;101090.81;6272030;28;20080;-73
2021/05/01 03:07:17;;;;;;;30.00;18.08;;;;;;;5.12;100.00;101088.28;6272271;28;20055;-75
2021/05/01 03:10:21;;;;;;;29.58;18.90;;;;;;;5.11;100.00;101077.00;6272299;28;20102;-74
2021/05/01 03:13:22;;;;;;;32.47;18.75;;;;;;;5.11;100.00;101074.41;6271899;28;20045;-74
2021/05/01 03:16:23;;;;;;;33.97;20.80;;;;;;;5.14;100.00;101074.34;6272296;28;20493;-74
2021/05/01 03:19:24;;;;;;;35.03;20.42;;;;;;;5.18;100.00;101075.09;6263349;28;20420;-73
2021/05/01 03:22:25;;;;;;;30.67;20.15;;;;;;;5.15;100.00;101072.59;6272054;28;20076;-73
2021/05/01 03:25:26;;;;;;;34.15;20.83;;;;;;;5.12;100.00;101070.06;6271492;28;20049;-73
2021/05/01 03:28:27;;;;;;;32.83;19.70;;;;;;;5.10;100.00;101075.31;6272113;28;20049;-73
2021/05/01 03:31:28;;;;;;;31.25;19.58;;;;;;;4.96;100.00;101070.44;6272011;28;20102;-73
2021/05/01 03:34:29;;;;;;;33.85;19.63;;;;;;;5.00;100.00;101068.63;6271266;28;20045;-73
2021/05/01 03:37:30;;;;;;;31.30;19.75;;;;;;;5.00;100.00;101076.44;6271715;28;20136;-73
2021/05/01 03:40:32;;;;;;;35.95;20.48;;;;;;;4.97;100.00;101079.97;6271579;28;20053;-74
2021/05/01 03:43:33;;;;;;;33.88;21.02;;;;;;;4.96;100.00;101077.41;6271532;28;20049;-74
2021/05/01 03:46:34;;;;;;;34.03;20.38;;;;;;;4.93;100.00;101078.34;6271509;28;20092;-74
2021/05/01 03:49:35;;;;;;;37.03;22.08;;;;;;;4.90;100.00;101080.16;6271757;28;20048;-73
2021/05/01 03:52:36;;;;;;;37.03;20.83;;;;;;;4.86;100.00;101089.81;6271395;28;20076;-74
2021/05/01 03:55:38;;;;;;;33.25;20.05;;;;;;;4.86;100.00;101079.41;6271314;28;20052;-73
2021/05/01 03:58:39;;;;;;;36.17;21.35;;;;;;;4.83;100.00;101079.47;6271452;28;20052;-74
2021/05/01 04:01:39;;;;;;;34.88;20.33;;;;;;;4.81;100.00;101082.09;6271241;28;20180;-73
2021/05/01 04:04:40;;;;;;;35.75;21.80;;;;;;;4.79;100.00;101085.63;6271299;28;20067;-73
2021/05/01 04:07:42;;;;;;;34.60;19.92;;;;;;;4.76;100.00;101090.91;6271202;28;20128;-73
2021/05/01 04:10:43;;;;;;;33.90;20.60;;;;;;;4.73;100.00;101088.38;6271349;28;20444;-73
2021/05/01 04:13:47;;;;;;;38.03;21.42;;;;;;;4.72;100.00;101084.03;6271001;28;20045;-73
2021/05/01 04:16:47;;;;;;;30.88;19.45;;;;;;;4.67;100.00;101076.34;6271223;28;20053;-73
2021/05/01 04:19:49;;;;;;;32.08;19.65;;;;;;;4.64;100.00;101079.03;6271180;28;20131;-73
2021/05/01 04:22:50;;;;;;;33.28;20.75;;;;;;;4.65;100.00;101079.91;6270894;28;20072;-73
2021/05/01 04:25:51;;;;;;;31.85;20.15;;;;;;;4.64;100.00;101080.78;6271162;28;20052;-73
2021/05/01 04:28:53;;;;;;;35.13;20.15;;;;;;;4.67;100.00;101075.50;6271273;28;20049;-73
2021/05/01 04:31:53;;;;;;;37.13;22.42;;;;;;;4.69;100.00;101076.34;6272149;28;20080;-73
2021/05/01 04:34:54;;;;;;;39.15;22.33;;;;;;;4.73;100.00;101083.19;6275358;28;20119;-73
2021/05/01 04:37:55;;;;;;;35.45;21.17;;;;;;;4.75;100.00;101082.22;6275961;28;20505;-73
2021/05/01 04:40:57;;;;;;;39.75;22.25;;;;;;;4.74;100.00;101077.94;6275694;28;20049;-73
2021/05/01 04:43:58;;;;;;;39.63;22.50;;;;;;;4.76;100.00;101086.53;6275555;28;20055;-73
2021/05/01 04:46:59;;;;;;;39.85;22.80;;;;;;;4.77;100.00;101084.81;6275703;28;20049;-74
2021/05/01 04:50:00;;;;;;;39.55;22.88;;;;;;;4.81;100.00;101081.22;6275656;28;20049;-73
2021/05/01 04:53:01;;;;;;;33.17;20.02;;;;;;;4.82;100.00;101082.97;6275331;28;20516;-73
2021/05/01 04:56:03;;;;;;;37.38;22.38;;;;;;;4.87;100.00;101085.44;6275427;28;20061;-74
2021/05/01 04:59:05;;;;;;;39.15;22.73;;;;;;;4.96;100.00;101091.28;6275504;28;20059;-73
2021/05/01 05:02:06;;;;;;;37.50;22.95;;;;;;;5.03;100.00;101084.16;6275064;28;20049;-73
2021/05/01 05:05:09;;;;;;;41.17;23.77;;;;;;;5.17;100.00;101083.81;6274909;28;20056;-73
2021/05/01 05:08:10;;;;;;;40.17;23.88;;;;;;;5.37;100.00;101097.19;6254102;28;20100;-73
2021/05/01 05:11:13;;;;;;;41.53;24.33;;;;;;;5.54;100.00;101105.44;6250334;28;20548;-73
2021/05/01 05:14:14;;;;;;;38.78;22.60;;;;;;;5.57;100.00;101105.31;6250016;28;20069;-74
2021/05/01 05:17:15;;;;;;;38.47;22.23;;;;;;;5.62;100.00;101099.13;6250227;28;20053;-74
2021/05/01 05:20:16;;;;;;;40.40;22.38;;;;;;;5.71;100.00;101097.13;6249977;28;20060;-74
2021/05/01 05:23:17;;;;;;;41.97;22.98;;;;;;;5.75;100.00;101100.50;6257651;28;20045;-74
2021/05/01 05:26:19;;;;;;;40.63;24.10;;;;;;;5.79;100.00;101099.53;6264325;28;20045;-74
2021/05/01 05:29:20;;;;;;;38.92;22.90;;;;;;;5.84;100.00;101097.66;6261872;28;20045;-74
2021/05/01 05:32:23;;;;;;;40.22;23.88;;;;;;;5.84;100.00;101092.44;6249844;28;20132;-74
2021/05/01 05:35:24;;;;;;;41.17;24.30;;;;;;;5.88;100.00;101104.50;6259922;28;20049;-74
2021/05/01 05:38:24;;;;;;;43.45;24.77;;;;;;;5.99;100.00;101096.38;6262817;28;20048;-74
2021/05/01 05:41:28;;;;;;;45.17;25.38;;;;;;;6.08;100.00;101104.78;6264103;28;20072;-74
2021/05/01 05:44:30;;;;;;;42.83;24.80;;;;;;;6.22;100.00;101101.81;6261456;28;20056;-75
2021/05/01 05:47:31;;;;;;;40.33;24.73;;;;;;;6.35;100.00;101102.28;6271013;28;20102;-74
2021/05/01 05:50:32;;;;;;;41.13;25.60;;;;;;;6.36;100.00;101101.41;6274309;28;20045;-74
2021/05/01 05:53:33;;;;;;;43.92;27.30;;;;;;;6.40;100.00;101103.00;6273765;28;20421;-74
2021/05/01 05:56:35;;;;;;;43.70;26.60;;;;;;;6.49;100.00;101101.84;6274060;28;20056;-74
2021/05/01 05:59:36;;;;;;;41.85;25.52;;;;;;;6.55;100.00;101106.91;6273876;28;20582;-74
2021/05/01 06:02:37;;;;;;;40.35;26.25;;;;;;;6.64;100.00;101109.22;6273651;28;20048;-74
2021/05/01 06:05:42;;;;;;;43.58;25.50;;;;;;;6.70;100.00;101105.56;6273509;28;20056;-74
2021/05/01 06:08:43;;;;;;;42.38;25.95;;;;;;;6.78;100.00;101106.19;6274000;28;20041;-74
2021/05/01 06:11:47;;;;;;;45.55;26.02;;;;;;;6.80;100.00;101110.44;6273737;28;20433;-75
2021/05/01 06:14:48;;;;;;;47.70;26.85;;;;;;;6.85;100.00;101102.47;6273083;28;20412;-74
2021/05/01 06:17:51;;;;;;;44.83;28.17;;;;;;;6.91;100.00;101106.66;6273317;28;20045;-76
2021/05/01 06:20:53;;;;;;;47.83;27.80;;;;;;;6.99;100.00;101110.69;6273398;28;20080;-74
2021/05/01 06:23:54;;;;;;;49.70;27.95;;;;;;;7.12;100.00;101103.31;6272985;28;20421;-76
2021/05/01 06:26:57;;;;;;;43.47;27.02;;;;;;;7.19;100.00;101101.38;6273358;28;20102;-76
2021/05/01 06:29:58;;;;;;;45.13;26.25;;;;;;;7.28;100.00;101111.50;6273341;28;20578;-74
2021/05/01 06:33:00;;;;;;;43.58;26.25;;;;;;;7.37;100.00;101112.03;6272850;28;20045;-76
2021/05/01 06:36:03;;;;;;;46.08;27.00;;;;;;;7.48;100.00;101114.28;6281479;23;20103;-73
2021/05/01 06:39:05;;;;;;;43.40;27.15;;;;;;;7.59;100.00;101109.56;6248096;28;20060;-73
2021/05/01 06:42:12;;;;;;;49.63;28.60;;;;;;;7.68;100.00;101107.53;6274656;28;20048;-73
2021/05/01 06:45:16;;;;;;;46.00;27.73;;;;;;;7.70;100.00;101108.31;6258850;28;20521;-73
2021/05/01 06:48:23;;;;;;;49.28;28.80;;;;;;;7.75;99.90;101109.00;6249476;28;20057;-73
2021/05/01 06:51:26;;;;;;;44.03;26.63;;;;;;;7.79;99.84;101110.59;6249970;28;20060;-74
2021/05/01 06:54:27;;;;;;;47.03;27.23;;;;;;;7.83;99.09;101105.19;6248584;28;20042;-73
2021/05/01 06:57:29;;;;;;;44.72;26.60;;;;;;;7.91;99.36;101112.78;6249500;28;20056;-74
2021/05/01 07:00:31;;;;;;;46.88;28.63;;;;;;;8.01;98.96;101118.53;6247869;28;20046;-73
2021/05/01 07:03:34;;;;;;;45.28;29.08;;;;;;;8.11;98.23;101118.13;6247509;28;20062;-74
2021/05/01 07:06:35;;;;;;;47.60;29.45;;;;;;;8.22;98.45;101119.47;6247329;28;20050;-73
2021/05/01 07:09:36;;;;;;;45.85;27.83;;;;;;;8.43;98.26;101126.56;6247664;28;20056;-73
2021/05/01 07:12:39;;;;;;;48.45;29.30;;;;;;;8.70;96.58;101122.00;6247421;28;20068;-73
2021/05/01 07:15:41;;;;;;;45.45;27.77;;;;;;;8.79;95.76;101120.78;6247043;28;20519;-74
2021/05/01 07:18:42;;;;;;;47.22;29.15;;;;;;;8.80;95.00;101127.75;6244785;28;20057;-74
2021/05/01 07:21:43;;;;;;;47.58;29.08;;;;;;;8.76;93.89;101127.00;6245796;28;20069;-74
2021/05/01 07:24:44;;;;;;;46.05;28.50;;;;;;;8.94;92.90;101119.31;6246508;28;20085;-74
2021/05/01 07:27:53;;;;;;;46.78;28.80;;;;;;;8.82;91.92;101121.53;6247340;28;20077;-74
2021/05/01 07:30:56;;;;;;;43.33;28.58;;;;;;;8.87;94.02;101123.97;6247219;28;20049;-74
2021/05/01 07:33:59;;;;;;;43.00;28.35;;;;;;;8.99;92.65;101117.34;6246981;28;20054;-74
2021/05/01 07:37:04;;;;;;;46.90;29.17;;;;;;;9.27;93.42;101117.94;6246864;28;20049;-75
2021/05/01 07:40:09;;;;;;;45.85;30.10;;;;;;;9.28;91.08;101108.31;6246857;28;20058;-74
2021/05/01 07:43:16;;;;;;;47.00;28.38;;;;;;;9.30;90.58;101119.56;6246476;28;20482;-74
2021/05/01 07:46:21;;;;;;;43.90;28.02;;;;;;;9.72;86.55;101116.91;6246771;28;20056;-74
2021/05/01 07:49:22;;;;;;;48.63;29.65;;;;;;;9.57;85.62;101112.28;6246778;28;20057;-74
2021/05/01 07:52:24;;;;;;;45.13;29.10;;;;;;;9.56;87.21;101114.06;6246604;28;20049;-74
2021/05/01 07:55:25;;;;;;;47.22;29.45;;;;;;;9.64;87.77;101109.34;6246588;28;20526;-74
2021/05/01 07:58:27;;;;;;;45.83;28.60;;;;;;;9.82;87.03;101109.47;6246544;28;20049;-74
2021/05/01 08:01:29;;;;;;;43.92;28.42;;;;;;;9.81;86.54;101107.75;6246833;28;20108;-74
2021/05/01 08:04:30;;;;;;;49.67;27.85;;;;;;;9.91;83.50;101104.66;6246074;28;20054;-74
2021/05/01 08:07:31;;;;;;;47.15;28.25;;;;;;;9.71;83.16;101109.91;6248730;28;20056;-74
2021/05/01 08:10:32;;;;;;;45.67;29.27;;;;;;;9.86;84.79;101100.53;6251666;28;20088;-74
2021/05/01 08:13:33;;;;;;;49.83;30.25;;;;;;;9.74;85.12;101101.91;6251519;28;20049;-74
2021/05/01 08:16:35;;;;;;;52.92;32.15;;;;;;;9.75;86.66;101097.53;6251566;28;20049;-74
2021/05/01 08:19:36;;;;;;;48.95;31.88;;;;;;;9.94;86.93;101103.66;6251420;28;20045;-75
2021/05/01 08:22:38;;;;;;;53.85;34.38;;;;;;;9.66;87.10;101097.00;6251662;28;20049;-75
2021/05/01 08:25:38;;;;;;;53.20;33.58;;;;;;;9.73;85.82;101094.97;6250948;28;20104;-74
2021/05/01 08:28:40;;;;;;;56.30;33.38;;;;;;;9.62;86.75;101099.81;6251202;28;20128;-75
2021/05/01 08:31:42;;;;;;;53.55;32.30;;;;;;;9.34;88.08;101101.00;6251372;28;20394;-75
2021/05/01 08:34:43;;;;;;;58.85;33.65;;;;;;;9.37;89.70;101105.28;6250973;28;20552;-75
2021/05/01 08:37:45;;;;;;;56.40;34.83;;;;;;;9.26;89.65;101104.88;6251077;28;20050;-75
2021/05/01 08:40:46;;;;;;;54.92;33.33;;;;;;;9.32;90.78;101109.88;6251139;28;20049;-75
2021/05/01 08:43:47;;;;;;;55.53;35.10;;;;;;;9.27;91.21;101117.09;6250590;28;20128;-75
2021/05/01 08:46:48;;;;;;;59.05;36.83;;;;;;;9.34;91.94;101113.28;6250841;28;20049;-75
2021/05/01 08:49:49;;;;;;;59.78;35.50;;;;;;;9.69;91.03;101116.19;6250740;28;20052;-75
2021/05/01 08:52:50;;;;;;;56.55;35.38;;;;;;;9.86;90.83;101113.66;6232814;28;20081;-74
2021/05/01 08:55:51;;;;;;;61.53;38.05;;;;;;;9.60;90.19;101123.53;6215714;28;20050;-75
2021/05/01 08:58:54;;;;;;;67.10;37.40;;;;;;;9.64;91.78;101117.22;6217794;28;20132;-75
2021/05/01 09:01:55;;;;;;;60.78;36.97;;;;;;;9.85;87.47;101112.78;6226076;28;20418;-75
2021/05/01 09:04:57;;;;;;;64.65;37.67;;;;;;;9.93;87.83;101112.44;6225547;28;20053;-74
2021/05/01 09:07:59;;;;;;;70.57;40.40;;;;;;;9.75;86.97;101113.28;6226133;28;20494;-76
2021/05/01 09:11:03;;;;;;;69.15;38.38;;;;;;;9.66;87.24;101109.28;6222850;28;20049;-77
2021/05/01 09:14:17;;;;;;;64.97;40.22;;;;;;;9.86;87.25;101111.03;6225405;28;20069;-74
2021/05/01 09:17:18;;;;;;;74.80;40.92;;;;;;;10.12;86.59;101099.34;6225373;28;20053;-74
2021/05/01 09:20:19;;;;;;;71.93;40.28;;;;;;;10.01;85.61;101099.84;6225493;28;20046;-75
2021/05/01 09:23:21;;;;;;;75.38;43.33;;;;;;;10.12;84.95;101099.34;6225278;28;20625;-75
2021/05/01 09:26:34;;;;;;;74.90;42.75;;;;;;;10.25;85.25;101095.25;6225528;28;20061;-75
2021/05/01 09:29:38;;;;;;;71.57;41.47;;;;;;;10.32;85.29;101087.97;6225497;28;20050;-74
2021/05/01 09:32:39;;;;;;;73.10;41.88;;;;;;;10.27;84.40;101085.56;6225282;28;20482;-74
2021/05/01 09:35:41;;;;;;;74.18;42.13;;;;;;;10.40;84.28;101084.06;6224861;28;20049;-75
2021/05/01 09:38:43;;;;;;;76.93;41.58;;;;;;;10.39;84.20;101079.69;6224809;28;20057;-72
2021/05/01 09:41:46;;;;;;;84.90;45.58;;;;;;;10.71;83.67;101095.72;6225200;28;20061;-73
2021/05/01 09:45:04;;;;;;;77.22;43.03;;;;;;;10.62;82.85;101085.63;6224543;28;20137;-73
2021/05/01 09:48:14;;;;;;;77.00;42.40;;;;;;;10.89;81.36;101084.28;6229934;28;20087;-73
2021/05/01 09:51:15;;;;;;;83.93;44.75;;;;;;;10.73;80.77;101095.66;6242246;28;20559;-74
2021/05/01 09:54:18;;;;;;;87.22;44.35;;;;;;;10.71;79.75;101092.22;6236095;28;20042;-73
2021/05/01 09:57:21;;;;;;;83.25;43.72;;;;;;;10.91;79.58;101094.75;6235967;28;20050;-73
2021/05/01 10:00:23;;;;;;;81.70;43.72;;;;;;;10.93;79.39;101101.63;6223656;28;20046;-73
2021/05/01 10:03:26;;;;;;;86.65;42.92;;;;;;;10.98;77.24;101090.88;6217673;28;20045;-73
2021/05/01 10:06:27;;;;;;;86.22;44.00;;;;;;;11.24;79.38;101084.31;6228588;28;20103;-74
2021/05/01 10:09:29;;;;;;;80.72;41.72;;;;;;;11.37;75.52;101076.66;6229403;28;20092;-73
2021/05/01 10:12:35;;;;;;;79.10;42.03;;;;;;;11.43;74.88;101082.44;6229585;28;20417;-73
2021/05/01 10:15:37;;;;;;;79.82;40.45;;;;;;;11.32;71.07;101082.16;6234482;28;20050;-73
2021/05/01 10:18:38;;;;;;;75.13;39.35;;;;;;;11.28;72.42;101079.75;6232406;28;20046;-74
2021/05/01 10:21:41;;;;;;;65.85;35.97;;;;;;;11.11;73.21;101073.56;6235312;28;20042;-73
2021/05/01 10:24:42;;;;;;;75.88;39.45;;;;;;;11.05;71.80;101070.41;6230518;28;20112;-73
2021/05/01 10:27:46;;;;;;;81.97;39.78;;;;;;;10.99;73.86;101073.31;6235784;28;20080;-73
2021/05/01 10:30:50;;;;;;;78.60;40.45;;;;;;;11.01;75.85;101068.84;6230301;28;20053;-73
2021/05/01 10:33:52;;;;;;;82.50;44.42;;;;;;;11.18;76.04;101076.75;6232807;28;20050;-73
2021/05/01 10:36:58;;;;;;;85.50;46.30;;;;;;;11.00;79.48;101077.69;6223427;28;20054;-73
2021/05/01 10:39:59;;;;;;;81.10;43.25;;;;;;;11.26;79.69;101073.72;6223538;28;20054;-73
2021/05/01 10:43:09;;;;;;;77.50;42.38;;;;;;;11.19;78.98;101070.56;6223129;28;20099;-73
2021/05/01 10:46:12;;;;;;;79.03;43.25;;;;;;;11.19;76.00;101075.81;6217901;28;20050;-73
2021/05/01 10:49:13;;;;;;;68.45;39.78;;;;;;;11.39;75.78;101070.38;6220922;28;20088;-73
2021/05/01 10:52:16;;;;;;;72.50;40.95;;;;;;;11.03;77.13;101065.19;6218726;28;20148;-73
2021/05/01 10:55:17;;;;;;;67.03;40.35;;;;;;;11.14;76.56;101057.63;6208199;28;20456;-73
2021/05/01 10:58:33;;;;;;;65.43;38.10;;;;;;;11.58;74.46;101058.88;6221713;28;20056;-73
2021/05/01 11:01:37;;;;;;;65.30;37.15;;;;;;;11.86;74.72;101056.53;6218134;28;20422;-73
2021/05/01 11:04:48;;;;;;;60.58;34.45;;;;;;;11.93;68.98;101057.06;6222823;28;20046;-73
2021/05/01 11:08:02;;;;;;;66.40;38.95;;;;;;;11.61;70.20;101058.75;6221952;28;20057;-73
2021/05/01 11:11:03;;;;;;;56.40;36.22;;;;;;;11.68;73.07;101068.03;6214212;28;20417;-73
2021/05/01 11:14:13;;;;;;;60.85;37.60;;;;;;;11.63;71.64;101073.53;6221855;28;20045;-72
2021/05/01 11:17:31;;;;;;;63.75;37.85;;;;;;;11.42;72.26;101072.00;6220128;28;20462;-75
2021/05/01 11:20:32;;;;;;;64.25;36.20;;;;;;;11.63;72.18;101072.69;6222244;28;20084;-74
2021/05/01 11:23:35;;;;;;;60.58;36.60;;;;;;;11.50;70.79;101069.00;6221814;28;20058;-75
2021/05/01 11:26:38;;;;;;;73.45;37.80;;;;;;;11.39;71.97;101077.41;6221486;28;20494;-74
2021/05/01 11:29:40;;;;;;;65.18;38.30;;;;;;;11.23;70.50;101094.94;6215831;28;20046;-76
2021/05/01 11:32:42;;;;;;;63.75;36.85;;;;;;;11.32;71.22;101090.06;6222564;28;20073;-76
2021/05/01 11:35:43;;;;;;;58.90;37.35;;;;;;;11.21;70.83;101086.25;6221900;28;20049;-75
2021/05/01 11:38:48;;;;;;;58.70;35.50;;;;;;;11.23;72.74;101087.03;6215985;28;20519;-75
2021/05/01 11:41:49;;;;;;;61.08;39.10;;;;;;;11.36;73.84;101093.38;6215327;28;20141;-75
2021/05/01 11:44:51;;;;;;;64.25;37.20;;;;;;;11.11;73.17;101093.75;6217601;28;20105;-75
2021/05/01 11:48:00;;;;;;;63.45;38.30;;;;;;;11.10;74.27;101094.69;6213449;28;20522;-75
2021/05/01 11:51:03;;;;;;;59.95;37.00;;;;;;;11.04;77.84;101098.50;6213376;28;20574;-76
2021/05/01 11:54:18;;;;;;;60.67;37.67;;;;;;;10.96;75.65;101095.38;6210044;28;20037;-75
2021/05/01 11:57:24;;;;;;;64.13;38.50;;;;;;;10.84;77.04;101098.59;6222316;28;20049;-75
2021/05/01 12:00:28;;;;;;;56.65;37.42;;;;;;;10.93;76.84;101098.16;6217977;28;20050;-76
2021/05/01 12:03:30;;;;;;;61.80;37.42;;;;;;;11.14;77.51;101096.25;6221802;28;20521;-74
2021/05/01 12:06:40;;;;;;;72.15;43.30;;;;;;;11.40;78.23;101089.69;6221656;28;20146;-75
2021/05/01 12:09:44;;;;;;;59.05;37.92;;;;;;;11.43;75.74;101081.59;6220175;28;20057;-74
2021/05/01 12:12:49;;;;;;;59.22;37.40;;;;;;;11.54;75.59;101081.06;6221720;28;20458;-76
2021/05/01 12:15:52;;;;;;;65.00;37.50;;;;;;;11.69;75.56;101077.63;6221998;28;20081;-75
2021/05/01 12:18:54;;;;;;;59.55;37.58;;;;;;;11.61;71.89;101078.00;6221727;28;20076;-75
2021/05/01 12:21:55;;;;;;;52.92;33.80;;;;;;;11.84;71.64;101078.63;6221623;28;20442;-75
2021/05/01 12:24:57;;;;;;;48.10;31.92;;;;;;;12.07;69.27;101083.50;6221454;28;20046;-75
2021/05/01 12:27:59;;;;;;;50.25;30.10;;;;;;;12.53;64.46;101073.03;6221657;28;20072;-76
2021/05/01 12:31:04;;;;;;;49.08;29.85;;;;;;;13.34;63.97;101070.16;6221712;28;20502;-75
2021/05/01 12:34:05;;;;;;;43.78;29.08;;;;;;;14.04;60.91;101054.44;6221231;28;20058;-76
2021/05/01 12:37:07;;;;;;;49.00;30.08;;;;;;;14.25;64.48;101052.22;6278561;22;20068;-75
2021/05/01 12:40:08;;;;;;;39.72;25.85;;;;;;;14.80;61.25;101052.16;6270383;28;20037;-76
2021/05/01 12:43:37;;;;;;;44.65;28.60;;;;;;;14.75;55.67;101045.47;6270396;28;20086;-75
2021/05/01 12:46:44;;;;;;;40.33;25.77;;;;;;;14.89;53.97;101034.81;6281741;28;20052;-75
2021/05/01 12:49:45;;;;;;;44.70;27.35;;;;;;;14.87;53.39;101040.22;6270920;28;20049;-77
2021/05/01 12:52:47;;;;;;;41.65;26.58;;;;;;;14.86;53.50;101030.59;6274975;28;20053;-77
2021/05/01 12:56:13;;;;;;;38.92;25.73;;;;;;;15.19;53.08;101030.13;6291793;28;20048;-76
2021/05/01 12:59:29;;;;;;;40.97;25.58;;;;;;;15.07;56.95;101024.81;6300416;28;20056;-76
2021/05/01 13:02:30;;;;;;;33.80;23.90;;;;;;;15.23;54.12;101023.66;6300312;28;20044;-76
2021/05/01 13:05:33;;;;;;;38.17;22.70;;;;;;;15.22;52.77;101021.97;6300251;28;20086;-78
2021/05/01 13:08:35;;;;;;;35.78;22.95;;;;;;;15.39;51.96;101015.50;6296546;28;20048;-75
2021/05/01 13:11:36;;;;;;;35.95;23.83;;;;;;;15.31;52.82;101011.72;6291812;28;20511;-75
2021/05/01 13:14:58;;;;;;;34.17;24.40;;;;;;;15.50;51.04;101011.28;6300413;28;20044;-75
2021/05/01 13:18:09;;;;;;;33.63;23.60;;;;;;;15.82;52.17;100999.28;6299908;28;20101;-77
2021/05/01 13:21:11;;;;;;;34.80;23.42;;;;;;;16.20;49.16;100991.22;6300086;28;20082;-77
2021/05/01 13:24:15;;;;;;;39.05;22.92;;;;;;;15.99;47.02;101000.75;6300185;28;20055;-79
2021/05/01 13:27:16;;;;;;;34.28;22.17;;;;;;;15.93;49.97;100994.06;6299781;28;20052;-78
2021/05/01 13:30:19;;;;;;;32.80;22.95;;;;;;;16.41;46.91;100999.41;6299933;28;20048;-76
2021/05/01 13:33:21;;;;;;;34.70;21.45;;;;;;;15.90;47.65;100986.34;6299325;28;20507;-77
2021/05/01 13:36:23;;;;;;;31.90;22.65;;;;;;;16.04;47.76;100990.66;6299469;28;20048;-76
2021/05/01 13:39:26;;;;;;;29.80;20.95;;;;;;;16.21;45.30;100978.78;6299943;28;20052;-77
2021/05/01 13:42:30;;;;;;;33.90;22.27;;;;;;;15.76;46.24;100978.53;6299355;28;20489;-79
2021/05/01 13:45:31;;;;;;;32.05;21.33;;;;;;;15.71;47.02;100973.56;6300432;28;20562;-77
2021/05/01 13:48:32;;;;;;;33.00;22.52;;;;;;;15.79;45.89;100975.66;6299581;28;20098;-77
2021/05/01 13:51:34;;;;;;;32.22;22.30;;;;;;;15.41;46.91;100965.94;6299725;28;20423;-77
2021/05/01 13:54:35;;;;;;;32.53;20.90;;;;;;;15.13;48.32;100958.22;6298843;28;20049;-75
2021/05/01 13:57:36;;;;;;;31.33;20.05;;;;;;;15.51;47.66;100952.91;6299116;28;20571;-75